This is the latest recevied weather packets stored in our database for station/object C31FR-13. If no packets are shown the sender has not sent any weather packets the latest 10 day(s).
| Time | Temp. | Humidity | Pressure | Rain* | Wind** | Luminosity | Snow |
|---|---|---|---|---|---|---|---|
| 1777836062 | 12.22° C | 87% | 1013.9 hPa | - | - | - | - |
| 1777835762 | 12.78° C | 86% | 1013.8 hPa | - | - | - | - |
| 1777835462 | 12.78° C | 85% | 1013.6 hPa | - | - | - | - |
| 1777834862 | 12.78° C | 85% | 1013.2 hPa | - | - | - | - |
| 1777833063 | 13.33° C | 88% | 1012.9 hPa | - | - | - | - |
| 1777832763 | 13.33° C | 86% | 1013 hPa | - | - | - | - |
| 1777832462 | 13.89° C | 86% | 1013 hPa | - | - | - | - |
| 1777832162 | 13.33° C | 87% | 1013 hPa | - | - | - | - |
| 1777831862 | 13.33° C | 87% | 1013.1 hPa | - | - | - | - |
| 1777831562 | 13.33° C | 85% | 1013.1 hPa | - | - | - | - |
| 1777827662 | 13.33° C | 88% | 1013.4 hPa | - | - | - | - |
| 1777827363 | 13.33° C | 91% | 1013.4 hPa | - | - | - | - |
| 1777827062 | 13.33° C | 90% | 1013.4 hPa | - | - | - | - |
| 1777826463 | 13.33° C | 91% | 1013.5 hPa | - | - | - | - |
| 1777825862 | 13.89° C | 87% | 1013.4 hPa | - | - | - | - |
| 1777824362 | 14.44° C | 81% | 1013.6 hPa | - | - | - | - |
| 1777824062 | 14.44° C | 82% | 1013.5 hPa | - | - | - | - |
| 1777823463 | 14.44° C | 81% | 1013.5 hPa | - | - | - | - |
| 1777822262 | 14.44° C | 78% | 1013.4 hPa | - | - | - | - |
| 1777820463 | 15.56° C | 68% | 1013.1 hPa | - | - | - | - |
| 1777819863 | 16.11° C | 61% | 1013 hPa | - | - | - | - |
| 1777818062 | 16.67° C | 59% | 1013.2 hPa | - | - | - | - |
| 1777817163 | 17.22° C | 58% | 1013.4 hPa | - | - | - | - |
| 1777815363 | 16.67° C | 60% | 1013.8 hPa | - | - | - | - |
| 1777814762 | 16.67° C | 59% | 1013.9 hPa | - | - | - | - |
* Rain since midnight (hover to see other rain measurements)
** Current wind speed in m/s (hover to see current wind gust speed)